Time;durP1;ratioP1;P1;durP2;ratioP2;P2;SDS_P1;SDS_P2;PMS_P1;PMS_P2;Temp;Humidity;BMP_temperature;BMP_pressure;BME280_temperature;BME280_humidity;BME280_pressure;Samples;Min_cycle;Max_cycle;Signal;HPM_P1;HPM_P2
2021/05/22 00:00:11;;;;;;;9.70;3.65;;;;;;;7.80;90.71;99349.70;1591240;90;21035;-72
2021/05/22 00:02:38;;;;;;;6.28;3.60;;;;;;;7.78;90.65;99356.02;1607905;87;21004;-72
2021/05/22 00:05:06;;;;;;;8.13;3.75;;;;;;;7.75;90.43;99351.71;1591953;90;21020;-72
2021/05/22 00:07:33;;;;;;;9.65;3.65;;;;;;;7.72;90.43;99350.39;1591179;90;21519;-72
2021/05/22 00:10:01;;;;;;;8.63;4.08;;;;;;;7.69;90.41;99342.80;1590227;90;21082;-72
2021/05/22 00:12:28;;;;;;;6.53;3.47;;;;;;;7.67;90.46;99346.94;1590490;90;21511;-72
2021/05/22 00:14:54;;;;;;;15.90;3.70;;;;;;;7.63;90.51;99339.91;1590380;90;21031;-73
2021/05/22 00:17:21;;;;;;;6.75;3.55;;;;;;;7.61;90.57;99339.39;1590305;90;20964;-73
2021/05/22 00:19:49;;;;;;;7.12;3.65;;;;;;;7.59;90.86;99344.34;1590203;90;20940;-72
2021/05/22 00:22:15;;;;;;;7.35;3.62;;;;;;;7.58;90.89;99345.45;1574612;89;21052;-72
2021/05/22 00:24:43;;;;;;;8.10;4.08;;;;;;;7.54;90.83;99345.80;1578591;90;21062;-72
2021/05/22 00:27:10;;;;;;;5.90;3.50;;;;;;;7.52;90.89;99352.13;1603585;89;20945;-73
2021/05/22 00:29:37;;;;;;;13.60;4.22;;;;;;;7.48;90.71;99351.13;1603736;89;21020;-74
2021/05/22 00:32:04;;;;;;;6.97;3.70;;;;;;;7.45;90.81;99346.27;1578506;90;21039;-72
2021/05/22 00:34:30;;;;;;;10.70;3.60;;;;;;;7.43;90.93;99344.39;1603534;88;21060;-72
2021/05/22 00:36:57;;;;;;;9.93;4.35;;;;;;;7.42;91.18;99347.67;1603511;89;20957;-72
2021/05/22 00:39:25;;;;;;;7.70;3.98;;;;;;;7.41;91.40;99354.25;1578418;90;20991;-72
2021/05/22 00:41:52;;;;;;;5.80;3.80;;;;;;;7.41;91.49;99349.34;1603545;89;21040;-71
2021/05/22 00:44:19;;;;;;;5.83;3.33;;;;;;;7.40;91.44;99349.08;1603591;88;21088;-72
2021/05/22 00:46:47;;;;;;;7.37;3.45;;;;;;;7.37;91.43;99349.12;1578369;90;21044;-71
2021/05/22 00:49:14;;;;;;;8.30;3.67;;;;;;;7.35;91.44;99351.91;1603505;89;20980;-72
2021/05/22 00:51:40;;;;;;;6.65;3.90;;;;;;;7.34;91.71;99348.91;1604647;88;21056;-72
2021/05/22 00:54:06;;;;;;;5.97;4.03;;;;;;;7.33;91.91;99360.95;1578543;90;21046;-71
2021/05/22 00:56:33;;;;;;;5.62;3.85;;;;;;;7.32;92.04;99359.33;1603675;88;21173;-72
2021/05/22 00:59:00;;;;;;;6.45;3.65;;;;;;;7.32;92.21;99359.33;1603551;88;21515;-72
2021/05/22 01:01:27;;;;;;;5.62;3.72;;;;;;;7.27;92.23;99349.30;1578458;91;20982;-72
2021/05/22 01:03:53;;;;;;;7.60;4.25;;;;;;;7.21;92.15;99347.20;1603550;89;21123;-73
2021/05/22 01:06:25;;;;;;;8.45;4.10;;;;;;;7.20;92.17;99352.41;1603780;88;20984;-73
2021/05/22 01:08:58;;;;;;;10.43;4.10;;;;;;;7.19;92.15;99354.07;1587422;87;21603;-74
2021/05/22 01:11:29;;;;;;;8.40;3.87;;;;;;;7.15;92.30;99349.77;1610396;87;21000;-73
2021/05/22 01:14:09;;;;;;;7.35;3.75;;;;;;;7.12;92.23;99357.18;1608754;89;21605;-73
2021/05/22 01:16:42;;;;;;;6.72;3.75;;;;;;;7.11;92.33;99360.20;1592088;90;20956;-73
2021/05/22 01:19:08;;;;;;;8.25;3.60;;;;;;;7.08;92.35;99358.88;1608845;89;20897;-73
2021/05/22 01:21:39;;;;;;;7.03;3.40;;;;;;;7.07;92.52;99361.91;1607930;89;21582;-73
2021/05/22 01:24:11;;;;;;;6.50;4.22;;;;;;;7.06;92.58;99365.19;1608791;89;21016;-73
2021/05/22 01:26:37;;;;;;;8.48;3.72;;;;;;;7.04;92.50;99365.23;1592241;90;21049;-73
2021/05/22 01:29:04;;;;;;;11.65;4.25;;;;;;;7.01;92.46;99357.08;1608829;89;20999;-74
2021/05/22 01:31:33;;;;;;;8.80;3.50;;;;;;;7.01;92.46;99365.27;1608733;89;21555;-74
2021/05/22 01:34:00;;;;;;;8.45;3.15;;;;;;;6.98;92.47;99360.40;1592065;90;21130;-73
2021/05/22 01:36:27;;;;;;;6.45;3.72;;;;;;;6.97;92.70;99365.60;1608759;89;20952;-73
2021/05/22 01:38:53;;;;;;;8.35;4.00;;;;;;;6.96;92.86;99372.17;1608795;89;21621;-71
2021/05/22 01:41:20;;;;;;;5.92;3.65;;;;;;;6.96;92.85;99363.98;1592089;90;20962;-72
2021/05/22 01:43:50;;;;;;;6.67;3.30;;;;;;;6.92;92.70;99367.88;1608856;89;21045;-72
2021/05/22 01:46:17;;;;;;;6.20;3.50;;;;;;;6.91;92.77;99370.36;1587547;89;21123;-72
2021/05/22 01:48:44;;;;;;;7.20;4.22;;;;;;;6.88;92.92;99369.58;1592157;90;21648;-72
2021/05/22 01:51:14;;;;;;;8.33;4.12;;;;;;;6.86;92.79;99364.97;1608911;89;20928;-72
2021/05/22 01:53:44;;;;;;;8.00;4.75;;;;;;;6.84;92.76;99363.09;1588965;90;21045;-72
2021/05/22 01:56:10;;;;;;;6.80;4.28;;;;;;;6.83;92.75;99363.39;1587651;89;21606;-73
2021/05/22 01:58:37;;;;;;;8.70;4.20;;;;;;;6.79;92.77;99365.89;1608904;89;21078;-73
2021/05/22 02:01:04;;;;;;;10.08;4.62;;;;;;;6.78;93.09;99364.27;1592173;90;21112;-73
2021/05/22 02:03:35;;;;;;;9.38;4.30;;;;;;;6.77;93.20;99369.47;1608923;89;20961;-74
2021/05/22 02:06:04;;;;;;;6.78;4.60;;;;;;;6.77;93.49;99369.47;1608680;89;20975;-74
2021/05/22 02:08:36;;;;;;;8.43;4.33;;;;;;;6.77;93.44;99376.29;1608763;87;20896;-74
2021/05/22 02:11:02;;;;;;;6.97;4.03;;;;;;;6.78;93.42;99382.56;1608798;89;21101;-74
2021/05/22 02:13:29;;;;;;;4.85;3.77;;;;;;;6.78;93.67;99384.73;1591293;90;21616;-74
2021/05/22 02:15:58;;;;;;;12.07;4.33;;;;;;;6.75;93.46;99381.78;1587732;90;21130;-75
2021/05/22 02:18:31;;;;;;;6.03;3.87;;;;;;;6.77;93.71;99385.84;1606468;87;21664;-75
2021/05/22 02:20:58;;;;;;;8.15;3.72;;;;;;;6.76;93.73;99384.22;1607379;87;20976;-75
2021/05/22 02:23:25;;;;;;;5.40;3.90;;;;;;;6.72;93.73;99372.82;1614420;87;21640;-74
2021/05/22 02:25:56;;;;;;;12.05;4.45;;;;;;;6.74;93.75;99382.89;1608769;89;20949;-75
2021/05/22 02:28:22;;;;;;;5.55;3.47;;;;;;;6.75;93.85;99387.23;1608838;89;21569;-75
2021/05/22 02:30:49;;;;;;;8.55;4.53;;;;;;;6.75;94.00;99396.79;1577515;91;20964;-74
2021/05/22 02:33:16;;;;;;;9.58;3.27;;;;;;;6.76;94.24;99391.03;1577469;91;20973;-74
2021/05/22 02:35:43;;;;;;;11.12;3.58;;;;;;;6.79;94.46;99385.55;1552959;91;21180;-74
2021/05/22 02:38:17;;;;;;;10.55;3.50;;;;;;;6.81;94.53;99386.88;1577473;90;20960;-75
2021/05/22 02:40:43;;;;;;;11.08;5.10;;;;;;;6.82;94.48;99387.13;1577553;89;21054;-74
2021/05/22 02:43:10;;;;;;;8.40;4.33;;;;;;;6.81;94.56;99388.23;1597545;89;20932;-75
2021/05/22 02:45:44;;;;;;;6.40;3.77;;;;;;;6.85;94.74;99394.73;1608654;89;21563;-74
2021/05/22 02:48:14;;;;;;;10.85;4.00;;;;;;;6.87;94.91;99395.25;1608649;89;21616;-74
2021/05/22 02:50:41;;;;;;;10.28;4.12;;;;;;;6.90;94.95;99399.30;1591355;89;21538;-74
2021/05/22 02:53:09;;;;;;;12.45;3.80;;;;;;;6.94;95.09;99405.77;1585774;89;20953;-74
2021/05/22 02:55:36;;;;;;;8.78;4.50;;;;;;;6.98;95.29;99399.97;1607368;89;21032;-74
2021/05/22 02:58:02;;;;;;;8.33;3.75;;;;;;;7.03;95.40;99402.62;1607531;89;20952;-74
2021/05/22 03:00:31;;;;;;;20.43;4.00;;;;;;;7.09;95.54;99406.09;1566068;89;21146;-74
2021/05/22 03:02:58;;;;;;;15.30;3.98;;;;;;;7.13;95.72;99407.13;1585838;89;21641;-74
2021/05/22 03:05:24;;;;;;;10.55;3.83;;;;;;;7.20;95.97;99408.38;1607454;89;21028;-74
2021/05/22 03:07:53;;;;;;;11.05;4.22;;;;;;;7.27;96.09;99413.47;1606180;89;21191;-74
2021/05/22 03:10:19;;;;;;;8.23;4.08;;;;;;;7.37;96.30;99424.78;1600072;89;20938;-74
2021/05/22 03:12:46;;;;;;;9.60;4.78;;;;;;;7.44;96.57;99424.66;1600141;89;21100;-72
2021/05/22 03:15:13;;;;;;;7.67;4.33;;;;;;;7.58;97.02;99419.22;1599945;89;20969;-75
2021/05/22 03:17:39;;;;;;;11.40;4.65;;;;;;;7.73;97.12;99416.23;1600160;89;21012;-74
2021/05/22 03:20:07;;;;;;;12.98;4.75;;;;;;;7.89;97.25;99414.84;1599996;89;21001;-74
2021/05/22 03:22:33;;;;;;;7.62;4.20;;;;;;;8.06;97.32;99420.29;1609398;88;21586;-74
2021/05/22 03:25:01;;;;;;;8.98;4.60;;;;;;;8.22;97.33;99414.76;1619005;88;20989;-73
2021/05/22 03:27:27;;;;;;;11.43;5.20;;;;;;;8.37;96.93;99417.23;1604295;88;20990;-74
2021/05/22 03:29:54;;;;;;;33.85;5.72;;;;;;;8.53;96.54;99415.80;1618817;88;21700;-72
2021/05/22 03:32:20;;;;;;;6.58;4.20;;;;;;;8.74;95.59;99416.72;1618973;87;20991;-72
2021/05/22 03:34:47;;;;;;;13.85;4.65;;;;;;;8.95;94.50;99419.27;1619107;88;21628;-74
2021/05/22 03:37:13;;;;;;;6.22;3.55;;;;;;;9.18;92.53;99426.41;1618927;88;21607;-75
2021/05/22 03:39:40;;;;;;;7.47;3.80;;;;;;;9.43;89.87;99431.81;1618861;88;20943;-77
2021/05/22 03:42:07;;;;;;;6.20;3.87;;;;;;;9.70;88.20;99432.81;1618968;87;20963;-76
2021/05/22 03:44:34;;;;;;;6.50;3.80;;;;;;;9.91;85.78;99438.81;1618973;88;21065;-76
2021/05/22 03:47:00;;;;;;;6.33;3.67;;;;;;;10.14;82.92;99438.78;1618988;88;21010;-77
2021/05/22 03:49:28;;;;;;;5.85;3.67;;;;;;;10.35;82.55;99438.50;1618985;88;21072;-75
2021/05/22 03:51:55;;;;;;;5.00;3.10;;;;;;;10.52;81.43;99440.48;1618852;88;21042;-72
2021/05/22 03:54:22;;;;;;;9.95;3.20;;;;;;;10.68;80.96;99443.59;1618979;88;20951;-73
2021/05/22 03:56:48;;;;;;;6.28;3.15;;;;;;;10.80;81.23;99436.93;1618862;88;20987;-72
2021/05/22 03:59:15;;;;;;;7.97;3.80;;;;;;;10.95;79.32;99438.41;1603357;88;21104;-74
2021/05/22 04:01:43;;;;;;;6.10;3.17;;;;;;;11.07;78.42;99439.38;1600122;89;21168;-75
2021/05/22 04:04:09;;;;;;;5.92;3.50;;;;;;;11.20;78.48;99448.04;1600260;89;21027;-75
2021/05/22 04:06:36;;;;;;;6.30;3.08;;;;;;;11.32;77.50;99443.84;1600282;89;21127;-74
2021/05/22 04:09:04;;;;;;;9.30;3.65;;;;;;;11.44;74.93;99450.88;1603616;89;21135;-75
2021/05/22 04:11:31;;;;;;;7.78;3.65;;;;;;;11.59;74.59;99447.61;1607758;89;21091;-74
2021/05/22 04:13:58;;;;;;;4.97;3.10;;;;;;;11.73;73.91;99453.75;1607827;89;21685;-74
2021/05/22 04:16:24;;;;;;;6.25;2.95;;;;;;;11.85;72.69;99443.49;1608599;89;21605;-74
2021/05/22 04:18:52;;;;;;;8.75;3.30;;;;;;;12.00;72.26;99449.05;1608754;89;20888;-73
2021/05/22 04:21:19;;;;;;;10.93;3.60;;;;;;;12.12;72.26;99445.86;1608915;89;20920;-73
2021/05/22 04:23:46;;;;;;;3.92;2.17;;;;;;;12.25;72.01;99445.39;1633164;87;21565;-73
2021/05/22 04:26:13;;;;;;;6.05;2.30;;;;;;;12.38;70.41;99446.31;1633266;87;21026;-73
2021/05/22 04:28:39;;;;;;;4.67;1.98;;;;;;;12.52;69.57;99444.15;1632498;87;20983;-73
2021/05/22 04:31:06;;;;;;;3.83;2.05;;;;;;;12.67;68.00;99442.22;1608645;89;21025;-72
2021/05/22 04:33:32;;;;;;;2.72;1.60;;;;;;;12.83;67.60;99447.36;1608855;88;21559;-72
2021/05/22 04:35:58;;;;;;;5.60;1.77;;;;;;;12.97;65.19;99434.72;1608822;89;21018;-72
2021/05/22 04:38:26;;;;;;;4.25;1.70;;;;;;;13.12;66.29;99442.97;1608702;89;21102;-72
2021/05/22 04:40:53;;;;;;;2.87;1.80;;;;;;;13.26;65.50;99437.23;1608801;89;21048;-72
2021/05/22 04:43:19;;;;;;;11.05;2.15;;;;;;;13.36;64.81;99435.42;1608794;89;21015;-73
2021/05/22 04:45:45;;;;;;;4.83;1.92;;;;;;;13.46;64.84;99433.64;1608741;89;21024;-71
2021/05/22 04:48:12;;;;;;;4.53;2.10;;;;;;;13.56;64.84;99434.61;1608807;89;20944;-73
2021/05/22 04:50:38;;;;;;;3.80;1.75;;;;;;;13.64;64.61;99433.72;1608765;89;21628;-73
2021/05/22 04:53:05;;;;;;;6.37;2.20;;;;;;;13.70;63.73;99426.85;1608642;89;21039;-73
2021/05/22 04:55:31;;;;;;;6.65;1.87;;;;;;;13.77;63.81;99435.39;1608800;89;21029;-73
2021/05/22 04:57:58;;;;;;;5.90;1.60;;;;;;;13.86;63.22;99436.08;1608824;89;21012;-74
2021/05/22 05:00:24;;;;;;;3.67;1.65;;;;;;;13.96;63.42;99440.36;1608782;89;21040;-72
2021/05/22 05:02:51;;;;;;;3.37;1.50;;;;;;;14.05;61.56;99437.52;1608662;87;21987;-71
2021/05/22 05:05:18;;;;;;;11.15;1.60;;;;;;;14.15;61.99;99442.59;1607844;89;21031;-78
2021/05/22 05:07:44;;;;;;;5.37;2.10;;;;;;;14.26;61.45;99438.25;1608274;87;21063;-83
2021/05/22 05:10:11;;;;;;;3.27;1.70;;;;;;;14.39;60.69;99437.13;1583993;90;21018;-80
2021/05/22 05:12:38;;;;;;;4.58;1.70;;;;;;;14.54;59.95;99431.50;1601097;89;21048;-72
2021/05/22 05:15:06;;;;;;;6.45;1.47;;;;;;;14.71;59.93;99436.80;1601457;89;21119;-72
2021/05/22 05:17:33;;;;;;;5.40;1.50;;;;;;;14.90;59.09;99438.17;1575160;91;20919;-72
2021/05/22 05:20:00;;;;;;;5.03;1.50;;;;;;;15.08;58.52;99431.22;1590651;90;20952;-73
2021/05/22 05:22:27;;;;;;;1.52;1.22;;;;;;;15.28;57.48;99430.83;1591167;89;21125;-81
2021/05/22 05:24:54;;;;;;;6.42;1.52;;;;;;;15.43;57.04;99435.63;1602904;89;21105;-79
2021/05/22 05:27:21;;;;;;;3.65;1.55;;;;;;;15.53;57.05;99433.75;1590505;90;21752;-83
2021/05/22 05:29:48;;;;;;;3.35;1.55;;;;;;;15.60;57.35;99440.88;1572033;91;21072;-84
2021/05/22 05:32:14;;;;;;;5.33;1.50;;;;;;;15.69;56.85;99441.53;1590208;89;20991;-80
2021/05/22 05:34:41;;;;;;;3.90;1.80;;;;;;;15.80;55.54;99440.45;1587175;90;21125;-83
2021/05/22 05:37:10;;;;;;;2.98;1.30;;;;;;;15.90;55.32;99439.95;1570629;90;21656;-82
2021/05/22 05:39:37;;;;;;;2.80;1.45;;;;;;;15.98;54.54;99439.56;1586765;90;21101;-81
2021/05/22 05:42:04;;;;;;;5.17;1.20;;;;;;;16.04;54.38;99442.30;1586683;89;21117;-83
2021/05/22 05:44:31;;;;;;;2.35;1.50;;;;;;;16.08;55.17;99437.09;1586679;89;21019;-79
2021/05/22 05:46:57;;;;;;;7.87;1.87;;;;;;;16.15;55.23;99450.31;1587431;89;21118;-80
2021/05/22 05:49:28;;;;;;;3.42;1.60;;;;;;;16.19;56.55;99448.42;1587953;90;21602;-73
2021/05/22 05:51:52;;;;;;;1.52;1.25;;;;;;;16.24;55.68;99455.08;1587869;90;21124;-81
2021/05/22 05:54:19;;;;;;;6.67;1.52;;;;;;;16.28;55.23;99458.75;1589233;88;20976;-83
2021/05/22 05:56:45;;;;;;;3.45;1.50;;;;;;;16.34;55.60;99462.87;1601120;89;21655;-80
2021/05/22 05:59:11;;;;;;;2.17;1.50;;;;;;;16.48;55.99;99469.36;1601469;89;20953;-87
2021/05/22 06:01:38;;;;;;;3.30;1.25;;;;;;;16.63;55.99;99465.79;1601788;88;20980;-81
2021/05/22 06:04:05;;;;;;;9.03;1.67;;;;;;;16.78;54.94;99466.95;1601417;89;21064;-87
2021/05/22 06:06:32;;;;;;;2.47;1.45;;;;;;;16.89;56.10;99474.95;1601309;88;20957;-74
2021/05/22 06:09:02;;;;;;;4.45;1.40;;;;;;;16.99;54.41;99468.05;1601311;89;22606;-77
2021/05/22 06:11:31;;;;;;;9.20;2.25;;;;;;;17.04;54.69;99476.09;1607411;89;20943;-76
2021/05/22 06:13:57;;;;;;;6.47;1.40;;;;;;;17.10;55.62;99483.77;1607509;89;21075;-77
2021/05/22 06:16:33;;;;;;;2.62;1.50;;;;;;;17.16;53.41;99492.63;1607383;89;21075;-82
2021/05/22 06:18:59;;;;;;;3.02;1.30;;;;;;;17.17;53.62;99492.84;1591435;90;20966;-69
2021/05/22 06:21:25;;;;;;;2.80;1.50;;;;;;;17.22;52.99;99500.09;1592203;90;21028;-69
2021/05/22 06:23:52;;;;;;;3.05;1.40;;;;;;;17.27;53.03;99508.13;1592075;90;20955;-69
2021/05/22 06:26:19;;;;;;;3.22;1.50;;;;;;;17.32;52.65;99507.85;1591941;90;21081;-69
2021/05/22 06:28:45;;;;;;;4.40;1.25;;;;;;;17.38;52.27;99506.37;1591731;90;21852;-69
2021/05/22 06:31:11;;;;;;;3.22;1.57;;;;;;;17.45;53.39;99503.76;1592070;88;20952;-69
2021/05/22 06:33:38;;;;;;;3.17;1.37;;;;;;;17.58;54.06;99499.69;1592146;90;20948;-69
2021/05/22 06:36:06;;;;;;;6.20;1.60;;;;;;;17.73;53.20;99498.86;1592274;90;21625;-68
2021/05/22 06:38:33;;;;;;;3.02;1.65;;;;;;;17.84;51.99;99488.56;1592155;90;21044;-69
2021/05/22 06:40:59;;;;;;;5.20;1.30;;;;;;;17.91;51.19;99504.76;1592235;90;21627;-69
2021/05/22 06:43:26;;;;;;;2.65;1.10;;;;;;;17.94;52.30;99510.16;1592107;90;20971;-70
2021/05/22 06:48:38;;;;;;;3.05;1.37;;;;;;;18.10;52.09;99513.67;1592189;90;20996;-69
2021/05/22 06:51:05;;;;;;;3.72;1.47;;;;;;;18.20;53.14;99522.80;1592089;90;21083;-69
2021/05/22 06:53:32;;;;;;;3.95;1.50;;;;;;;18.30;50.95;99515.27;1592079;90;21547;-69
2021/05/22 06:55:59;;;;;;;1.85;1.20;;;;;;;18.37;51.23;99511.23;1591996;90;21035;-70
2021/05/22 06:58:25;;;;;;;5.28;1.47;;;;;;;18.39;50.03;99503.33;1569042;90;20968;-69
2021/05/22 07:00:53;;;;;;;5.72;1.65;;;;;;;18.38;51.05;99505.89;1592030;90;21035;-69
2021/05/22 07:03:20;;;;;;;3.85;1.45;;;;;;;18.46;51.91;99510.41;1592146;90;21603;-69
2021/05/22 07:05:48;;;;;;;1.98;1.10;;;;;;;18.58;50.38;99509.98;1592169;90;21141;-69
2021/05/22 07:08:17;;;;;;;4.08;1.50;;;;;;;18.64;50.94;99505.76;1592038;88;21033;-69
2021/05/22 07:10:46;;;;;;;3.35;1.45;;;;;;;18.71;50.35;99504.49;1589428;89;21056;-69
2021/05/22 07:13:13;;;;;;;4.03;1.30;;;;;;;18.76;49.32;99507.77;1588632;90;20940;-69
2021/05/22 07:15:39;;;;;;;3.77;1.62;;;;;;;18.79;49.39;99504.24;1588708;90;20940;-69
2021/05/22 07:18:06;;;;;;;3.02;1.27;;;;;;;18.87;48.95;99513.52;1588716;90;22004;-68
2021/05/22 07:20:33;;;;;;;2.37;1.30;;;;;;;18.87;47.57;99494.05;1588608;90;20921;-69
2021/05/22 07:22:59;;;;;;;4.10;1.70;;;;;;;18.86;48.49;99495.80;1588547;90;21040;-70
2021/05/22 07:25:25;;;;;;;2.65;1.12;;;;;;;18.89;49.07;99500.03;1588789;90;21043;-69
2021/05/22 07:27:53;;;;;;;3.00;1.50;;;;;;;19.00;51.35;99496.04;1588559;90;20940;-68
2021/05/22 07:30:20;;;;;;;3.22;1.52;;;;;;;19.16;46.84;99496.66;1588662;90;21502;-69
2021/05/22 07:32:47;;;;;;;3.12;2.00;;;;;;;19.22;48.25;99499.34;1588608;90;21041;-69
2021/05/22 07:35:15;;;;;;;4.78;1.50;;;;;;;19.34;48.27;99492.76;1588563;90;21027;-68
2021/05/22 07:37:41;;;;;;;3.05;1.40;;;;;;;19.45;48.04;99493.71;1588488;90;20977;-69
2021/05/22 07:40:10;;;;;;;2.75;1.50;;;;;;;19.55;46.69;99491.70;1588635;90;20949;-69
2021/05/22 07:42:37;;;;;;;8.95;1.75;;;;;;;19.64;45.93;99489.41;1588679;90;21580;-69
2021/05/22 07:45:05;;;;;;;4.40;1.37;;;;;;;19.71;44.32;99481.14;1588576;90;20941;-68
2021/05/22 07:47:31;;;;;;;5.65;1.90;;;;;;;19.78;44.19;99487.40;1588616;90;20924;-69
2021/05/22 07:49:57;;;;;;;8.78;1.37;;;;;;;19.88;45.07;99488.72;1588628;90;21056;-69
2021/05/22 07:52:24;;;;;;;5.17;1.75;;;;;;;19.95;44.07;99492.39;1588560;90;21567;-69
2021/05/22 07:54:50;;;;;;;4.25;1.30;;;;;;;20.04;44.37;99486.52;1588633;90;21077;-69
2021/05/22 07:57:17;;;;;;;6.42;1.40;;;;;;;20.21;44.57;99489.30;1588624;89;21052;-69
2021/05/22 07:59:43;;;;;;;5.42;1.62;;;;;;;20.41;43.75;99498.48;1588679;90;20948;-69
2021/05/22 08:02:10;;;;;;;3.67;1.02;;;;;;;20.54;42.14;99492.64;1588574;90;20977;-69
2021/05/22 08:04:36;;;;;;;4.45;1.67;;;;;;;20.61;41.51;99492.70;1591041;88;21614;-69
2021/05/22 08:07:03;;;;;;;4.80;1.12;;;;;;;20.57;42.58;99490.47;1590298;89;21082;-69
2021/05/22 08:09:30;;;;;;;15.80;4.47;;;;;;;20.62;42.10;99488.14;1591770;89;20988;-70
2021/05/22 08:11:57;;;;;;;5.00;1.80;;;;;;;20.77;41.79;99479.31;1592180;90;21048;-70
2021/05/22 08:14:24;;;;;;;10.15;2.98;;;;;;;21.01;40.69;99480.67;1592090;90;21039;-70
2021/05/22 08:16:50;;;;;;;2.33;1.10;;;;;;;21.25;39.13;99483.47;1591348;90;20982;-70
2021/05/22 08:19:17;;;;;;;4.60;1.42;;;;;;;21.46;38.74;99489.16;1600898;89;21862;-70
2021/05/22 08:21:45;;;;;;;4.25;1.30;;;;;;;21.54;38.39;99479.62;1608140;89;20968;-70
2021/05/22 08:24:13;;;;;;;4.85;1.30;;;;;;;21.54;37.57;99469.85;1592158;90;20974;-70
2021/05/22 08:26:40;;;;;;;6.97;2.20;;;;;;;21.55;38.58;99466.46;1608392;89;21064;-70
2021/05/22 08:29:10;;;;;;;6.25;1.82;;;;;;;21.61;39.94;99458.72;1593210;88;21069;-69
2021/05/22 08:31:37;;;;;;;5.35;1.35;;;;;;;21.81;39.28;99462.00;1612507;86;21090;-70
2021/05/22 08:34:06;;;;;;;2.30;1.12;;;;;;;21.97;39.30;99451.25;1603635;87;21087;-68
2021/05/22 08:36:34;;;;;;;1.55;1.15;;;;;;;22.12;38.34;99454.92;1590950;88;21077;-69
2021/05/22 08:39:00;;;;;;;6.97;1.15;;;;;;;22.30;36.70;99461.95;1590875;90;21026;-69
2021/05/22 08:41:27;;;;;;;2.27;1.30;;;;;;;22.38;38.85;99446.80;1604977;89;22297;-69
2021/05/22 08:43:54;;;;;;;3.42;1.02;;;;;;;22.52;37.38;99444.02;1607462;89;21610;-70
2021/05/22 08:46:21;;;;;;;2.17;1.30;;;;;;;22.64;36.54;99449.79;1605705;87;20938;-69
2021/05/22 08:48:48;;;;;;;3.00;1.10;;;;;;;22.71;35.62;99451.19;1591680;90;21662;-69
2021/05/22 08:51:15;;;;;;;4.30;1.20;;;;;;;22.59;34.94;99448.78;1608936;89;21039;-69
2021/05/22 08:53:42;;;;;;;9.18;2.02;;;;;;;22.37;35.72;99432.01;1617581;88;21548;-69
2021/05/22 08:56:08;;;;;;;6.80;1.95;;;;;;;22.31;36.08;99442.58;1607615;89;21114;-69
2021/05/22 08:58:35;;;;;;;3.58;0.90;;;;;;;22.44;36.78;99437.41;1619755;88;21034;-70
2021/05/22 09:01:04;;;;;;;3.67;1.17;;;;;;;22.70;35.56;99442.59;1606080;89;21131;-68
2021/05/22 09:03:31;;;;;;;5.42;1.30;;;;;;;22.83;35.65;99428.44;1608491;88;21001;-69
2021/05/22 09:05:58;;;;;;;4.97;1.50;;;;;;;22.98;36.09;99434.22;1591625;90;21067;-69
2021/05/22 09:08:24;;;;;;;3.72;1.20;;;;;;;23.27;33.67;99446.74;1567466;90;21029;-70
2021/05/22 09:10:53;;;;;;;2.98;0.90;;;;;;;23.50;32.57;99431.68;1605215;89;20993;-69
2021/05/22 09:13:23;;;;;;;7.97;1.72;;;;;;;23.64;31.70;99427.45;1601060;88;21064;-70
2021/05/22 09:16:04;;;;;;;3.80;1.52;;;;;;;23.75;30.74;99425.19;1601045;89;21136;-69
2021/05/22 09:18:40;;;;;;;1.55;0.90;;;;;;;23.97;31.49;99419.67;1601284;89;20981;-69
2021/05/22 09:21:09;;;;;;;5.37;0.98;;;;;;;24.19;29.23;99421.14;1601620;89;21044;-69
2021/05/22 09:23:39;;;;;;;6.47;1.35;;;;;;;24.17;28.67;99431.17;1601418;89;21614;-69
2021/05/22 09:26:14;;;;;;;1.27;0.60;;;;;;;24.02;28.25;99426.25;1601487;89;21590;-68
2021/05/22 09:28:50;;;;;;;8.93;1.25;;;;;;;23.96;29.65;99412.47;1589165;90;21103;-69
2021/05/22 09:31:18;;;;;;;2.70;0.80;;;;;;;24.02;30.83;99416.44;1600115;89;21103;-69
2021/05/22 09:33:45;;;;;;;2.95;1.00;;;;;;;24.06;30.47;99416.42;1601250;89;22162;-68
2021/05/22 09:36:13;;;;;;;2.22;0.95;;;;;;;24.00;29.09;99427.27;1600534;88;20924;-69
2021/05/22 09:38:48;;;;;;;1.80;0.80;;;;;;;23.83;28.53;99413.53;1604562;89;20938;-69
2021/05/22 09:41:34;;;;;;;4.78;0.90;;;;;;;23.76;28.12;99409.97;1601425;89;21008;-68
2021/05/22 09:44:13;;;;;;;1.35;0.80;;;;;;;23.68;26.69;99405.80;1601560;89;20977;-68
2021/05/22 09:46:50;;;;;;;2.33;0.90;;;;;;;23.69;28.82;99403.79;1576414;91;21052;-68
2021/05/22 09:49:23;;;;;;;2.65;0.80;;;;;;;23.61;30.22;99387.64;1601604;89;21032;-68
2021/05/22 09:52:05;;;;;;;3.62;1.32;;;;;;;23.53;30.64;99386.08;1601641;89;20909;-68
2021/05/22 09:54:52;;;;;;;2.50;1.00;;;;;;;23.56;29.68;99392.27;1576453;91;20942;-68
2021/05/22 09:57:36;;;;;;;1.37;0.78;;;;;;;23.69;30.35;99391.98;1601562;88;20940;-69
2021/05/22 10:00:16;;;;;;;1.50;0.80;;;;;;;23.78;29.59;99379.52;1601638;89;22031;-69
2021/05/22 10:02:57;;;;;;;0.95;0.85;;;;;;;23.88;30.17;99366.05;1576476;91;21553;-69
2021/05/22 10:05:33;;;;;;;4.37;1.05;;;;;;;23.99;29.01;99363.38;1578645;89;20980;-68
2021/05/22 10:08:03;;;;;;;1.60;0.90;;;;;;;24.06;28.55;99364.55;1601532;89;21158;-69
2021/05/22 10:10:41;;;;;;;5.58;1.32;;;;;;;23.88;29.27;99361.25;1579805;89;21035;-68
2021/05/22 10:13:09;;;;;;;2.45;0.90;;;;;;;23.88;30.07;99363.25;1592167;90;20926;-69
2021/05/22 10:15:36;;;;;;;1.92;0.90;;;;;;;23.93;30.06;99362.22;1608928;89;21003;-69
2021/05/22 10:18:03;;;;;;;2.90;1.10;;;;;;;23.94;27.78;99359.61;1608970;89;21456;-70
2021/05/22 10:20:30;;;;;;;4.37;0.80;;;;;;;23.91;27.20;99352.63;1592164;90;21009;-69
2021/05/22 10:22:56;;;;;;;2.72;0.68;;;;;;;23.84;27.88;99356.87;1609028;89;20940;-69
2021/05/22 10:25:23;;;;;;;2.40;0.90;;;;;;;23.83;28.69;99351.06;1609088;89;21570;-69
2021/05/22 10:27:50;;;;;;;3.12;1.32;;;;;;;23.87;30.26;99350.44;1592084;90;20998;-69
2021/05/22 10:30:19;;;;;;;5.20;1.00;;;;;;;23.96;28.99;99345.18;1608916;89;20992;-69
2021/05/22 10:32:46;;;;;;;3.70;1.00;;;;;;;23.96;30.64;99355.80;1608857;89;20975;-69
2021/05/22 10:35:20;;;;;;;1.07;0.90;;;;;;;24.07;30.64;99352.92;1592264;90;21550;-69
2021/05/22 10:37:48;;;;;;;2.37;0.80;;;;;;;24.21;30.46;99344.41;1609432;89;21648;-69
2021/05/22 10:40:18;;;;;;;1.87;1.00;;;;;;;24.43;29.95;99335.81;1609807;89;21056;-68
2021/05/22 10:42:47;;;;;;;1.85;0.88;;;;;;;24.59;29.43;99357.92;1592283;90;21688;-69
2021/05/22 10:45:37;;;;;;;5.78;0.90;;;;;;;24.61;28.21;99333.05;1613161;87;21035;-70
2021/05/22 10:48:08;;;;;;;2.87;1.17;;;;;;;24.63;28.95;99334.83;1633103;87;21693;-69
2021/05/22 10:50:47;;;;;;;3.37;1.10;;;;;;;24.81;28.69;99318.42;1633315;87;21135;-69
2021/05/22 10:53:37;;;;;;;3.08;0.78;;;;;;;24.81;28.27;99336.06;1633333;87;21525;-69
2021/05/22 10:56:08;;;;;;;4.75;0.82;;;;;;;24.62;27.13;99314.99;1629695;87;20940;-69
2021/05/22 10:58:38;;;;;;;1.62;1.07;;;;;;;24.35;27.54;99324.66;1602761;89;21065;-68
2021/05/22 11:01:30;;;;;;;2.37;1.10;;;;;;;24.26;28.24;99319.36;1589744;90;21037;-69
2021/05/22 11:04:16;;;;;;;7.15;1.55;;;;;;;24.26;27.90;99313.11;1589860;90;21129;-68
2021/05/22 11:06:47;;;;;;;2.20;0.93;;;;;;;24.48;27.39;99326.95;1589818;90;20982;-68
2021/05/22 11:09:35;;;;;;;2.83;1.00;;;;;;;24.48;26.66;99312.93;1589947;90;21642;-68
2021/05/22 11:12:18;;;;;;;2.67;1.00;;;;;;;24.40;27.07;99318.41;1588840;89;21381;-69
2021/05/22 11:14:47;;;;;;;1.70;0.80;;;;;;;24.38;26.59;99311.81;1588703;90;20981;-69
2021/05/22 11:17:26;;;;;;;1.27;0.70;;;;;;;24.47;27.07;99311.33;1588693;89;21100;-69
2021/05/22 11:20:07;;;;;;;1.32;0.88;;;;;;;24.63;27.28;99307.37;1588534;90;21303;-69
2021/05/22 11:22:45;;;;;;;5.03;2.27;;;;;;;24.87;25.97;99302.08;1588717;90;20910;-69
2021/05/22 11:25:14;;;;;;;7.95;1.20;;;;;;;24.92;26.70;99304.43;1587156;90;21634;-69
2021/05/22 11:27:52;;;;;;;3.45;1.02;;;;;;;24.84;26.71;99308.53;1588701;90;21516;-69
2021/05/22 11:30:36;;;;;;;1.55;0.90;;;;;;;24.66;27.02;99310.75;1588643;90;21043;-69
2021/05/22 11:33:08;;;;;;;2.72;1.10;;;;;;;24.67;27.03;99323.57;1588506;90;20913;-70
2021/05/22 11:35:44;;;;;;;2.40;1.72;;;;;;;24.73;27.93;99306.47;1588727;90;21065;-68
2021/05/22 11:38:17;;;;;;;3.98;1.30;;;;;;;24.92;26.54;99286.18;1588640;90;20953;-67
2021/05/22 11:40:52;;;;;;;1.40;0.90;;;;;;;25.07;26.48;99290.26;1588761;90;20934;-69
2021/05/22 11:43:33;;;;;;;11.30;2.25;;;;;;;25.24;26.88;99281.61;1588604;90;21510;-68